Time;durP1;ratioP1;P1;durP2;ratioP2;P2;SDS_P1;SDS_P2;PMS_P1;PMS_P2;Temp;Humidity;BMP_temperature;BMP_pressure;BME280_temperature;BME280_humidity;BME280_pressure;Samples;Min_cycle;Max_cycle;Signal;HPM_P1;HPM_P2
2021/08/28 00:01:23;;;;;;;26.75;4.53;;;;;;;12.92;100.00;102007.47;5216773;28;20107;-80
2021/08/28 00:03:54;;;;;;;18.30;3.92;;;;;;;12.87;100.00;102001.69;5224354;28;20020;-80
2021/08/28 00:06:25;;;;;;;22.38;4.00;;;;;;;12.79;100.00;102001.59;5225130;28;20032;-80
2021/08/28 00:08:55;;;;;;;15.77;4.60;;;;;;;12.70;100.00;102014.16;5224552;28;20458;-80
2021/08/28 00:11:26;;;;;;;16.90;5.30;;;;;;;12.69;100.00;102007.03;5224500;28;20060;-80
2021/08/28 00:13:56;;;;;;;19.17;4.28;;;;;;;12.69;100.00;102007.03;5215473;28;20528;-81
2021/08/28 00:16:27;;;;;;;17.60;4.03;;;;;;;12.66;100.00;102001.13;5206834;28;20458;-81
2021/08/28 00:18:57;;;;;;;19.83;4.30;;;;;;;12.62;100.00;101997.91;5215001;28;20034;-81
2021/08/28 00:21:28;;;;;;;24.23;4.85;;;;;;;12.71;100.00;101998.84;5222781;28;20021;-80
2021/08/28 00:23:58;;;;;;;29.88;4.20;;;;;;;12.66;100.00;102004.69;5226051;28;20021;-81
2021/08/28 00:26:29;;;;;;;25.13;5.28;;;;;;;12.65;100.00;102002.13;5220749;28;20044;-81
2021/08/28 00:29:00;;;;;;;16.42;4.10;;;;;;;12.65;100.00;102007.50;5217677;28;20025;-81
2021/08/28 00:31:30;;;;;;;18.15;3.97;;;;;;;12.71;100.00;102004.22;5194180;28;20024;-81
2021/08/28 00:34:01;;;;;;;22.55;5.20;;;;;;;12.69;100.00;102006.22;5225726;28;20029;-80
2021/08/28 00:36:31;;;;;;;24.25;4.53;;;;;;;12.84;100.00;102011.91;5218123;28;20053;-81
2021/08/28 00:39:02;;;;;;;25.88;5.25;;;;;;;12.83;100.00;102008.38;5217687;28;20032;-81
2021/08/28 00:41:33;;;;;;;17.40;4.65;;;;;;;12.86;100.00;102009.94;5214477;28;20025;-80
2021/08/28 00:44:04;;;;;;;18.38;5.00;;;;;;;12.96;100.00;102005.31;5224476;28;20040;-81
2021/08/28 00:46:34;;;;;;;22.17;5.22;;;;;;;13.04;100.00;102010.75;5225075;28;20025;-81
2021/08/28 00:49:04;;;;;;;23.05;5.43;;;;;;;13.10;100.00;102015.56;5224859;28;20025;-80
2021/08/28 00:51:38;;;;;;;24.38;4.85;;;;;;;13.09;100.00;102018.38;5225379;28;20028;-80
2021/08/28 00:54:08;;;;;;;25.33;4.65;;;;;;;13.14;100.00;102019.63;5218151;28;20018;-80
2021/08/28 00:56:40;;;;;;;18.95;4.85;;;;;;;13.16;100.00;102014.94;5205466;28;20040;-81
2021/08/28 00:59:11;;;;;;;15.13;4.63;;;;;;;13.17;100.00;102019.31;5224702;28;20036;-81
2021/08/28 01:01:42;;;;;;;22.05;5.45;;;;;;;13.16;100.00;102014.94;5192225;28;20132;-81
2021/08/28 01:04:18;;;;;;;21.08;4.70;;;;;;;13.29;100.00;102024.50;5215158;28;20146;-81
2021/08/28 01:07:05;;;;;;;17.38;4.43;;;;;;;13.28;100.00;102017.41;5224852;28;20037;-81
2021/08/28 01:09:39;;;;;;;18.08;5.07;;;;;;;13.25;100.00;102015.03;5212731;28;20028;-80
2021/08/28 01:12:25;;;;;;;18.30;5.22;;;;;;;13.25;100.00;102017.72;5204543;28;20040;-80
2021/08/28 01:15:00;;;;;;;22.88;5.45;;;;;;;13.26;100.00;102014.03;5217764;28;20134;-81
2021/08/28 01:17:34;;;;;;;25.83;6.05;;;;;;;13.30;100.00;102010.84;5216381;28;20029;-80
2021/08/28 01:20:31;;;;;;;17.42;5.15;;;;;;;13.26;100.00;102009.50;5224539;28;20025;-80
2021/08/28 01:23:05;;;;;;;17.33;5.00;;;;;;;13.28;100.00;102007.47;5224773;28;20045;-80
2021/08/28 01:25:36;;;;;;;23.02;5.20;;;;;;;13.20;100.00;102001.97;5225429;28;20021;-81
2021/08/28 01:28:12;;;;;;;13.90;4.97;;;;;;;13.07;100.00;102002.38;5218548;28;20025;-81
2021/08/28 01:30:43;;;;;;;16.70;4.35;;;;;;;12.93;100.00;102003.75;5218087;28;20068;-80
2021/08/28 01:33:14;;;;;;;23.83;4.85;;;;;;;12.85;100.00;101998.31;5224743;28;20036;-80
2021/08/28 01:35:46;;;;;;;15.48;4.88;;;;;;;12.77;100.00;101995.53;5211352;28;20025;-80
2021/08/28 01:38:18;;;;;;;23.60;5.15;;;;;;;12.69;100.00;101998.97;5224367;28;20493;-80
2021/08/28 01:40:56;;;;;;;17.88;4.82;;;;;;;12.64;100.00;102000.44;5224331;28;20024;-81
2021/08/28 01:43:28;;;;;;;25.42;6.47;;;;;;;12.54;100.00;102007.72;5212639;28;20025;-80
2021/08/28 01:45:59;;;;;;;23.73;5.25;;;;;;;12.60;100.00;102004.41;5223362;28;20017;-80
2021/08/28 01:48:32;;;;;;;15.90;4.95;;;;;;;12.61;100.00;102020.44;5211165;28;20048;-81
2021/08/28 01:51:03;;;;;;;22.45;5.80;;;;;;;12.53;100.00;102012.25;5224088;28;20048;-80
2021/08/28 01:53:34;;;;;;;18.00;6.40;;;;;;;12.53;100.00;102017.66;5204452;28;20357;-80
2021/08/28 01:56:05;;;;;;;27.27;6.22;;;;;;;12.49;100.00;102010.84;5212985;28;20071;-81
2021/08/28 01:58:36;;;;;;;25.70;7.20;;;;;;;12.50;100.00;102006.31;5210630;28;20116;-80
2021/08/28 02:01:07;;;;;;;29.13;6.57;;;;;;;12.52;100.00;102015.94;5213298;28;20411;-81
2021/08/28 02:03:37;;;;;;;22.13;6.47;;;;;;;12.54;100.00;102016.63;5216366;28;20551;-82
2021/08/28 02:06:36;;;;;;;30.95;7.78;;;;;;;12.62;100.00;102022.13;5215656;28;20032;-81
2021/08/28 02:09:39;;;;;;;27.10;6.63;;;;;;;12.67;100.00;102019.81;5198090;28;20617;-80
2021/08/28 02:12:25;;;;;;;24.65;7.15;;;;;;;12.63;100.00;102015.75;5212137;28;20025;-81
2021/08/28 02:14:59;;;;;;;28.88;8.57;;;;;;;12.57;100.00;102019.03;5222670;28;20025;-80
2021/08/28 02:17:31;;;;;;;23.88;7.50;;;;;;;12.69;100.00;102012.44;5211301;28;20034;-82
2021/08/28 02:20:05;;;;;;;26.60;7.57;;;;;;;12.66;100.00;102011.91;5223098;28;20029;-81
2021/08/28 02:22:40;;;;;;;32.13;7.93;;;;;;;12.63;100.00;102004.97;5223425;28;20029;-81
2021/08/28 02:25:24;;;;;;;27.10;7.60;;;;;;;12.78;100.00;102017.91;5203308;28;20030;-81
2021/08/28 02:28:03;;;;;;;22.73;7.53;;;;;;;12.85;100.00;102024.38;5221359;28;20017;-81
2021/08/28 02:30:34;;;;;;;35.80;7.63;;;;;;;12.84;100.00;102015.44;5206053;28;20035;-80
2021/08/28 02:33:07;;;;;;;33.60;7.95;;;;;;;12.86;100.00;102023.41;5210333;28;20078;-80
2021/08/28 02:35:37;;;;;;;26.48;7.45;;;;;;;12.93;100.00;102030.69;5209105;28;20368;-80
2021/08/28 02:38:08;;;;;;;22.77;7.20;;;;;;;12.98;100.00;102032.09;5203122;28;20033;-80
2021/08/28 02:40:39;;;;;;;25.65;7.10;;;;;;;13.02;100.00;102030.78;5205716;28;20394;-81
2021/08/28 02:43:11;;;;;;;24.60;7.90;;;;;;;13.03;100.00;102027.94;5223819;28;20021;-80
2021/08/28 02:45:42;;;;;;;24.52;7.75;;;;;;;13.07;100.00;102029.31;5219899;28;20106;-80
2021/08/28 02:48:17;;;;;;;30.48;8.10;;;;;;;13.04;100.00;102026.09;5214304;28;20039;-80
2021/08/28 02:50:49;;;;;;;22.85;7.45;;;;;;;12.99;100.00;102021.16;5223210;28;20040;-81
2021/08/28 02:53:22;;;;;;;28.13;7.70;;;;;;;12.97;100.00;102017.78;5223776;28;20037;-80
2021/08/28 02:55:53;;;;;;;24.20;7.28;;;;;;;12.93;100.00;102019.94;5198471;28;20033;-80
2021/08/28 02:58:24;;;;;;;33.10;8.15;;;;;;;12.92;100.00;102022.78;5216483;28;20064;-80
2021/08/28 03:00:56;;;;;;;25.15;7.68;;;;;;;12.99;100.00;102015.78;5222158;28;20499;-80
2021/08/28 03:03:28;;;;;;;16.58;6.78;;;;;;;12.94;100.00;102015.38;5210260;28;20029;-80
2021/08/28 03:05:58;;;;;;;25.50;7.28;;;;;;;12.92;100.00;102004.78;5204227;28;20029;-80
2021/08/28 03:08:29;;;;;;;28.95;7.63;;;;;;;12.92;100.00;102004.78;5224033;28;20031;-80
2021/08/28 03:11:00;;;;;;;29.08;7.63;;;;;;;12.92;100.00;102006.63;5225533;28;20052;-80
2021/08/28 03:13:31;;;;;;;27.25;7.78;;;;;;;12.86;100.00;102001.84;5212643;28;20029;-80
2021/08/28 03:16:02;;;;;;;44.70;9.50;;;;;;;12.79;100.00;101995.38;5225408;28;20497;-80
2021/08/28 03:18:38;;;;;;;24.30;8.07;;;;;;;12.74;100.00;101993.13;5227001;28;20457;-81
2021/08/28 03:21:09;;;;;;;;;;;;;;;12.71;100.00;101998.84;5226885;28;20029;-81
2021/08/28 03:23:43;;;;;;;31.02;8.82;;;;;;;12.67;100.00;101994.75;5229780;28;19965;-81
2021/08/28 03:26:17;;;;;;;31.10;8.85;;;;;;;12.70;100.00;101992.59;5229845;28;20031;-80
2021/08/28 03:28:48;;;;;;;28.27;9.13;;;;;;;12.66;100.00;101988.53;5212819;28;20056;-80
2021/08/28 03:31:24;;;;;;;33.15;8.57;;;;;;;12.67;100.00;101987.53;5229744;28;20383;-80
2021/08/28 03:33:56;;;;;;;;;;;;;;;12.59;100.00;101984.72;5230486;28;20100;-80
2021/08/28 03:36:27;;;;;;;28.10;7.82;;;;;;;12.58;100.00;101987.59;5230174;28;20370;-80
2021/08/28 03:39:00;;;;;;;25.38;7.95;;;;;;;12.49;100.00;101985.78;5228467;28;20028;-80
2021/08/28 03:41:30;;;;;;;25.20;8.82;;;;;;;12.42;100.00;101999.84;5217861;28;20020;-79
2021/08/28 03:44:01;;;;;;;24.90;9.07;;;;;;;12.42;100.00;101996.31;5229767;28;20028;-80
2021/08/28 03:46:32;;;;;;;30.83;9.63;;;;;;;12.39;100.00;101992.06;5229791;28;20402;-80
2021/08/28 03:49:02;;;;;;;25.70;9.38;;;;;;;12.34;100.00;101985.44;5229412;28;20139;-80
2021/08/28 03:51:34;;;;;;;31.92;10.15;;;;;;;12.30;100.00;101984.06;5218511;28;20021;-80
2021/08/28 03:54:04;;;;;;;32.95;10.30;;;;;;;12.27;100.00;101993.28;5227676;28;20029;-80
2021/08/28 03:56:35;;;;;;;35.15;10.63;;;;;;;12.35;100.00;101997.91;5229645;28;20549;-80
2021/08/28 03:59:06;;;;;;;34.75;10.10;;;;;;;12.37;100.00;101996.78;5229603;28;20367;-80
2021/08/28 04:01:36;;;;;;;30.55;9.93;;;;;;;12.46;100.00;101999.56;5216020;28;20108;-80
2021/08/28 04:04:07;;;;;;;34.63;10.70;;;;;;;12.48;100.00;101995.72;5221344;28;20052;-80
2021/08/28 04:06:37;;;;;;;40.08;11.50;;;;;;;12.53;100.00;101989.88;5224902;28;20021;-80
2021/08/28 04:09:07;;;;;;;42.55;9.25;;;;;;;12.59;100.00;101992.81;5211524;28;20063;-80
2021/08/28 04:11:38;;;;;;;33.83;10.43;;;;;;;12.60;100.00;101994.53;5229114;28;20417;-80
2021/08/28 04:14:08;;;;;;;31.02;11.13;;;;;;;12.59;100.00;101995.50;5229427;28;20029;-80
2021/08/28 04:16:39;;;;;;;41.30;11.10;;;;;;;12.60;100.00;101990.94;5229280;28;20036;-80
2021/08/28 04:19:09;;;;;;;33.15;10.45;;;;;;;12.61;100.00;101995.38;5227970;28;20039;-80
2021/08/28 04:21:40;;;;;;;42.85;11.50;;;;;;;12.63;100.00;101998.75;5215361;28;20025;-80
2021/08/28 04:24:10;;;;;;;27.27;10.00;;;;;;;12.70;100.00;101991.72;5216427;28;20033;-80
2021/08/28 04:26:41;;;;;;;48.00;11.98;;;;;;;12.77;100.00;101992.00;5228807;28;20071;-80
2021/08/28 04:29:11;;;;;;;36.28;11.38;;;;;;;12.93;100.00;101994.84;5228829;28;20021;-81
2021/08/28 04:31:42;;;;;;;30.00;10.20;;;;;;;13.00;100.00;102000.44;5228887;28;20021;-80
2021/08/28 04:34:13;;;;;;;34.00;10.82;;;;;;;13.05;100.00;101993.63;5229282;28;20066;-80
2021/08/28 04:36:43;;;;;;;42.92;11.82;;;;;;;13.12;100.00;101992.00;5228906;28;20029;-80
2021/08/28 04:39:14;;;;;;;30.95;10.50;;;;;;;13.19;100.00;101994.91;5228300;28;20033;-81
2021/08/28 04:41:44;;;;;;;29.02;10.18;;;;;;;13.28;100.00;101995.84;5228553;28;20478;-80
2021/08/28 04:44:15;;;;;;;25.45;9.40;;;;;;;13.29;100.00;101998.38;5229685;28;20386;-81
2021/08/28 04:46:45;;;;;;;31.98;9.05;;;;;;;13.31;100.00;102000.94;5229135;28;20108;-81
2021/08/28 04:49:16;;;;;;;36.30;9.90;;;;;;;13.39;100.00;101995.59;5228954;28;20552;-80
2021/08/28 04:51:46;;;;;;;28.05;8.65;;;;;;;13.41;100.00;101990.91;5228900;28;20033;-81
2021/08/28 04:54:17;;;;;;;27.27;8.45;;;;;;;13.41;100.00;101991.75;5215810;28;20463;-81
2021/08/28 04:56:47;;;;;;;26.85;9.45;;;;;;;13.41;100.00;101999.00;5228267;28;20050;-80
2021/08/28 04:59:18;;;;;;;33.55;8.45;;;;;;;13.35;100.00;101988.81;5228181;28;20025;-80
2021/08/28 05:01:49;;;;;;;34.55;8.93;;;;;;;13.43;100.00;101994.28;5228351;28;20111;-80
2021/08/28 05:04:19;;;;;;;26.05;10.05;;;;;;;13.46;100.00;102002.06;5228584;28;20025;-79
2021/08/28 05:06:50;;;;;;;25.33;7.90;;;;;;;13.59;100.00;102007.88;5228473;28;20521;-80
2021/08/28 05:09:20;;;;;;;32.75;9.05;;;;;;;13.56;100.00;102008.22;5227235;28;20027;-81
2021/08/28 05:11:51;;;;;;;23.10;7.70;;;;;;;13.65;100.00;101998.31;5227452;28;20029;-82
2021/08/28 05:14:21;;;;;;;29.65;8.93;;;;;;;13.71;100.00;102006.63;5227099;28;20086;-80
2021/08/28 05:16:52;;;;;;;28.13;8.52;;;;;;;13.78;100.00;102000.59;5212450;28;20024;-81
2021/08/28 05:19:22;;;;;;;29.48;7.90;;;;;;;13.83;100.00;102009.06;5227184;28;20437;-80
2021/08/28 05:21:53;;;;;;;35.33;8.40;;;;;;;13.92;100.00;102002.72;5227043;28;20465;-81
2021/08/28 05:24:23;;;;;;;29.73;7.70;;;;;;;13.97;100.00;101998.53;5196393;28;20033;-80
2021/08/28 05:26:54;;;;;;;21.50;7.68;;;;;;;14.02;100.00;102005.28;5210089;28;20025;-79
2021/08/28 05:29:24;;;;;;;25.38;7.43;;;;;;;14.11;100.00;102004.34;5226792;28;20364;-80
2021/08/28 05:31:55;;;;;;;22.27;7.28;;;;;;;14.17;100.00;102007.22;5226803;28;20021;-80
2021/08/28 05:34:25;;;;;;;22.13;7.22;;;;;;;14.15;100.00;102008.38;5227248;28;20013;-78
2021/08/28 05:36:56;;;;;;;24.98;7.28;;;;;;;14.16;100.00;102013.63;5227616;28;20032;-80
2021/08/28 05:39:26;;;;;;;28.77;7.75;;;;;;;14.29;100.00;102009.63;5209169;28;20033;-78
2021/08/28 05:41:58;;;;;;;23.40;6.57;;;;;;;14.26;100.00;102002.72;5210417;28;20031;-82
2021/08/28 05:44:28;;;;;;;21.27;7.75;;;;;;;14.32;100.00;102009.31;5227361;28;20033;-79
2021/08/28 05:46:59;;;;;;;29.95;6.65;;;;;;;14.38;100.00;102011.34;5227149;28;20066;-80
2021/08/28 05:49:30;;;;;;;40.72;7.95;;;;;;;14.39;100.00;102003.09;5227163;28;20017;-79
2021/08/28 05:52:00;;;;;;;21.27;7.13;;;;;;;14.53;100.00;102004.34;5206696;28;20084;-79
2021/08/28 05:54:30;;;;;;;24.67;6.65;;;;;;;14.60;100.00;102009.94;5217344;28;20028;-82
2021/08/28 05:57:01;;;;;;;27.63;7.07;;;;;;;14.60;100.00;102016.19;5228097;28;20127;-80
2021/08/28 05:59:31;;;;;;;29.88;8.15;;;;;;;14.65;100.00;102011.13;5228101;28;20032;-79
2021/08/28 06:02:02;;;;;;;14.43;6.35;;;;;;;14.69;100.00;102004.38;5229407;28;20043;-82
2021/08/28 06:04:33;;;;;;;24.77;7.35;;;;;;;14.75;100.00;102006.41;5220925;28;20028;-84
2021/08/28 06:07:03;;;;;;;17.52;6.85;;;;;;;14.75;100.00;102005.59;5233858;28;20070;-82
2021/08/28 06:09:34;;;;;;;25.58;7.03;;;;;;;14.79;100.00;102012.34;5222091;28;20137;-82
2021/08/28 06:12:05;;;;;;;22.25;6.93;;;;;;;14.81;100.00;102007.66;5209850;28;20021;-81
2021/08/28 06:14:35;;;;;;;20.17;6.43;;;;;;;14.93;100.00;102009.00;5222510;28;20025;-82
2021/08/28 06:17:06;;;;;;;21.42;6.53;;;;;;;14.92;100.00;102009.19;5222431;28;20457;-81
2021/08/28 06:19:36;;;;;;;21.15;6.47;;;;;;;15.09;100.00;102010.03;5222213;28;20609;-81
2021/08/28 06:22:06;;;;;;;24.90;7.05;;;;;;;15.08;100.00;102002.94;5222333;28;20071;-84
2021/08/28 06:24:37;;;;;;;17.65;5.68;;;;;;;15.23;100.00;102007.50;5222103;28;20021;-80
2021/08/28 06:27:08;;;;;;;19.50;7.07;;;;;;;15.21;100.00;102008.66;5199609;28;20021;-82
2021/08/28 06:29:39;;;;;;;25.65;7.03;;;;;;;15.26;100.00;102019.81;5207308;28;20337;-79
2021/08/28 06:32:10;;;;;;;18.17;5.90;;;;;;;15.31;100.00;102017.47;5218279;28;20079;-82
2021/08/28 06:34:41;;;;;;;26.90;6.75;;;;;;;15.36;100.00;102012.41;5227201;28;20375;-81
2021/08/28 06:37:11;;;;;;;22.02;6.43;;;;;;;15.34;100.00;102021.69;5227276;28;20364;-81
2021/08/28 06:39:42;;;;;;;18.38;5.93;;;;;;;15.34;100.00;102013.59;5226076;28;20051;-82
2021/08/28 06:42:12;;;;;;;20.58;5.97;;;;;;;15.42;100.00;102017.16;5188761;28;20430;-82
2021/08/28 06:44:44;;;;;;;21.40;6.10;;;;;;;15.41;100.00;102017.28;5221200;28;20034;-81
2021/08/28 06:47:14;;;;;;;18.95;6.53;;;;;;;15.38;100.00;102020.34;5196147;28;20495;-80
2021/08/28 06:49:45;;;;;;;21.50;6.18;;;;;;;15.41;100.00;102006.47;5213469;28;20036;-81
2021/08/28 06:52:15;;;;;;;23.70;6.43;;;;;;;15.53;100.00;102018.66;5230343;28;20035;-80
2021/08/28 06:54:46;;;;;;;26.75;5.85;;;;;;;15.60;100.00;102025.06;5221026;28;20056;-82
2021/08/28 06:57:16;;;;;;;18.45;6.45;;;;;;;15.75;100.00;102028.78;5230568;28;20041;-82
2021/08/28 06:59:47;;;;;;;18.95;5.55;;;;;;;15.87;100.00;102020.34;5219952;28;20036;-83
2021/08/28 07:02:17;;;;;;;25.52;5.93;;;;;;;15.90;100.00;102015.41;5228604;28;20093;-83
2021/08/28 07:04:48;;;;;;;18.90;6.25;;;;;;;16.01;100.00;102025.88;5230166;28;20032;-82
2021/08/28 07:07:18;;;;;;;18.33;6.15;;;;;;;16.22;100.00;102017.19;5230964;28;20071;-79
2021/08/28 07:09:49;;;;;;;18.92;5.47;;;;;;;16.30;100.00;102019.84;5231929;28;20044;-80
2021/08/28 07:12:19;;;;;;;17.40;5.07;;;;;;;16.40;100.00;102016.09;5232097;28;20101;-82
2021/08/28 07:14:50;;;;;;;26.48;6.25;;;;;;;16.40;100.00;102013.38;5231572;28;20059;-83
2021/08/28 07:17:20;;;;;;;10.45;4.68;;;;;;;16.54;100.00;102012.63;5230083;28;20028;-82
2021/08/28 07:19:51;;;;;;;14.65;4.97;;;;;;;16.58;100.00;102011.25;5213992;28;20024;-82
2021/08/28 07:22:21;;;;;;;11.85;5.18;;;;;;;16.82;100.00;102023.88;5222661;28;20025;-82
2021/08/28 07:24:52;;;;;;;14.90;5.50;;;;;;;16.96;100.00;102025.78;5232761;28;20013;-80
2021/08/28 07:27:23;;;;;;;17.15;5.78;;;;;;;17.13;100.00;102020.25;5229999;28;20025;-82
2021/08/28 07:29:54;;;;;;;17.58;4.72;;;;;;;17.25;100.00;102021.50;5220171;28;20029;-82
2021/08/28 07:32:24;;;;;;;16.33;5.18;;;;;;;17.41;100.00;102017.81;5223797;28;20021;-82
2021/08/28 07:34:55;;;;;;;26.65;4.85;;;;;;;17.55;100.00;102025.16;5230036;28;20035;-82
2021/08/28 07:37:25;;;;;;;13.60;4.88;;;;;;;17.76;100.00;102029.91;5198247;28;20021;-82
2021/08/28 07:39:56;;;;;;;11.75;4.72;;;;;;;17.94;100.00;102027.69;5222296;28;20087;-82
2021/08/28 07:42:30;;;;;;;12.75;3.88;;;;;;;18.09;100.00;102028.53;5226907;28;20029;-83
2021/08/28 07:45:02;;;;;;;17.75;5.10;;;;;;;18.11;100.00;102028.34;5202306;28;20127;-83
2021/08/28 07:47:32;;;;;;;14.88;4.90;;;;;;;18.40;100.00;102032.06;5228207;28;20032;-83
2021/08/28 07:50:03;;;;;;;20.23;4.95;;;;;;;18.27;100.00;102019.16;5229922;28;20178;-82
2021/08/28 07:52:33;;;;;;;16.60;4.75;;;;;;;18.29;100.00;102026.09;5231498;28;20050;-84
2021/08/28 07:55:04;;;;;;;10.73;4.57;;;;;;;18.31;100.00;102023.19;5231127;28;20021;-83
2021/08/28 07:57:35;;;;;;;12.48;4.50;;;;;;;18.50;100.00;102040.78;5230478;28;20060;-83
2021/08/28 08:00:09;;;;;;;15.45;4.97;;;;;;;18.51;100.00;102039.75;5227696;28;20063;-82
2021/08/28 08:02:40;;;;;;;18.33;5.63;;;;;;;18.34;100.00;102039.94;5228375;28;20056;-83
2021/08/28 08:05:10;;;;;;;15.30;5.15;;;;;;;18.61;100.00;102043.84;5229456;28;20025;-82
2021/08/28 08:07:41;;;;;;;14.18;5.13;;;;;;;18.70;100.00;102039.19;5230330;28;20025;-81
2021/08/28 08:10:11;;;;;;;14.20;5.82;;;;;;;18.85;100.00;102037.25;5230549;28;20051;-82
2021/08/28 08:12:42;;;;;;;14.07;5.50;;;;;;;18.86;100.00;102035.38;5230215;28;20041;-82
2021/08/28 08:15:13;;;;;;;14.02;6.13;;;;;;;18.94;100.00;102020.84;5198311;28;20055;-83
2021/08/28 08:17:43;;;;;;;12.00;5.03;;;;;;;18.92;100.00;102031.88;5228201;28;20461;-83
2021/08/28 08:20:14;;;;;;;18.75;5.45;;;;;;;19.09;100.00;102022.47;5214068;28;20426;-88
2021/08/28 08:22:44;;;;;;;13.75;5.50;;;;;;;19.06;100.00;102017.41;5227229;28;20107;-83
2021/08/28 08:25:15;;;;;;;14.23;5.50;;;;;;;18.93;100.00;102028.16;5229777;28;20453;-83
2021/08/28 08:27:46;;;;;;;8.75;4.07;;;;;;;18.94;100.00;102029.00;5229331;28;20395;-82
2021/08/28 08:30:16;;;;;;;17.77;4.53;;;;;;;18.92;100.00;102037.31;5210510;28;20031;-81
2021/08/28 08:32:48;;;;;;;12.00;4.90;;;;;;;19.02;100.00;102031.56;5214228;28;20029;-82
2021/08/28 08:35:19;;;;;;;7.68;4.10;;;;;;;18.78;100.00;102041.78;5217431;28;20047;-84
2021/08/28 08:37:49;;;;;;;15.15;5.28;;;;;;;18.57;100.00;102037.09;5227150;28;20086;-81
2021/08/28 08:40:20;;;;;;;14.80;4.90;;;;;;;18.41;100.00;102033.75;5227969;28;20029;-81
2021/08/28 08:42:51;;;;;;;11.82;4.53;;;;;;;18.08;100.00;102034.16;5210648;28;20167;-83
2021/08/28 08:45:23;;;;;;;12.13;3.63;;;;;;;18.11;100.00;102042.75;5229219;28;20515;-81
2021/08/28 08:47:55;;;;;;;11.00;4.40;;;;;;;18.28;100.00;102040.72;5229821;28;20039;-82
2021/08/28 08:50:26;;;;;;;16.90;4.50;;;;;;;18.18;100.00;102048.31;5228595;28;20114;-82
2021/08/28 08:53:01;;;;;;;14.13;4.90;;;;;;;18.44;100.00;102041.53;5227858;28;20028;-82
2021/08/28 08:55:32;;;;;;;10.73;5.07;;;;;;;18.66;100.00;102037.84;5229050;28;20573;-82
2021/08/28 08:58:03;;;;;;;10.25;4.25;;;;;;;18.84;100.00;102042.91;5228950;28;20120;-82
2021/08/28 09:00:35;;;;;;;14.30;4.78;;;;;;;19.09;100.00;102041.50;5229444;28;20044;-83
2021/08/28 09:03:05;;;;;;;12.18;4.50;;;;;;;19.33;100.00;102040.28;5228762;28;20429;-83
2021/08/28 09:05:36;;;;;;;13.07;5.13;;;;;;;19.52;100.00;102043.34;5189296;28;20036;-82
2021/08/28 09:08:06;;;;;;;11.02;4.45;;;;;;;19.58;100.00;102040.69;5210258;28;20463;-85
2021/08/28 09:10:37;;;;;;;14.05;4.05;;;;;;;19.73;100.00;102040.63;5227892;28;20021;-82
2021/08/28 09:13:16;;;;;;;8.70;4.03;;;;;;;19.92;100.00;102045.38;5224511;28;20033;-83
2021/08/28 09:15:49;;;;;;;8.68;3.50;;;;;;;19.91;100.00;102046.41;5225643;28;20029;-83
2021/08/28 09:18:20;;;;;;;10.73;3.75;;;;;;;20.09;100.00;102048.63;5226431;28;20052;-83
2021/08/28 09:20:51;;;;;;;9.52;3.65;;;;;;;20.10;100.00;102042.13;5228403;28;20394;-80
2021/08/28 09:23:21;;;;;;;10.60;4.70;;;;;;;19.98;100.00;102049.19;5226915;28;20043;-86
2021/08/28 09:25:53;;;;;;;10.35;4.57;;;;;;;19.93;100.00;102046.22;5222483;28;20084;-85
2021/08/28 09:28:34;;;;;;;7.05;3.80;;;;;;;19.66;100.00;102043.28;5221723;28;20024;-84
2021/08/28 09:31:05;;;;;;;9.80;4.45;;;;;;;19.79;100.00;102041.72;5221435;28;20067;-83
2021/08/28 09:33:36;;;;;;;9.68;4.88;;;;;;;19.87;100.00;102038.84;5222445;28;20063;-84
2021/08/28 09:36:06;;;;;;;10.02;4.03;;;;;;;19.89;100.00;102034.03;5221797;28;20284;-84
2021/08/28 09:38:39;;;;;;;11.25;4.10;;;;;;;19.87;100.00;102039.66;5221572;28;20064;-83
2021/08/28 09:41:10;;;;;;;6.53;4.07;;;;;;;20.02;100.00;102039.56;5221217;28;20012;-83
2021/08/28 09:43:40;;;;;;;8.68;3.70;;;;;;;20.15;100.00;102039.66;5208564;28;20021;-84
2021/08/28 09:46:11;;;;;;;18.55;4.82;;;;;;;20.43;100.00;102042.31;5221548;28;20036;-83
2021/08/28 09:48:41;;;;;;;10.60;4.10;;;;;;;20.57;100.00;102037.78;5221427;28;20025;-83
2021/08/28 09:51:12;;;;;;;10.68;3.95;;;;;;;20.73;100.00;102039.31;5221340;28;20024;-84
2021/08/28 09:53:42;;;;;;;9.07;4.13;;;;;;;20.67;100.00;102051.03;5221356;28;20025;-85
2021/08/28 09:56:13;;;;;;;10.50;3.55;;;;;;;20.63;100.00;102036.13;5194303;28;20071;-84
2021/08/28 09:58:44;;;;;;;10.15;4.25;;;;;;;20.53;100.00;102035.66;5184539;28;20040;-83
2021/08/28 10:01:14;;;;;;;9.55;3.88;;;;;;;20.36;100.00;102037.88;5222772;28;20029;-81
2021/08/28 10:03:57;;;;;;;10.50;4.00;;;;;;;19.96;100.00;102037.66;5221368;28;20032;-81
2021/08/28 10:06:29;;;;;;;10.32;4.07;;;;;;;19.84;100.00;102050.97;5220976;28;20509;-81
2021/08/28 10:08:59;;;;;;;10.23;4.22;;;;;;;19.78;100.00;102051.78;5221179;28;20033;-81
2021/08/28 10:11:30;;;;;;;11.20;4.40;;;;;;;19.75;100.00;102044.00;5219105;28;20029;-81
2021/08/28 10:14:01;;;;;;;9.77;4.22;;;;;;;19.52;100.00;102054.22;5210092;28;20501;-82
2021/08/28 10:16:31;;;;;;;14.88;5.25;;;;;;;19.23;100.00;102047.03;5220731;28;20020;-82
2021/08/28 10:19:02;;;;;;;12.00;4.72;;;;;;;19.51;100.00;102053.41;5220082;28;20036;-80
2021/08/28 10:21:35;;;;;;;12.15;4.30;;;;;;;19.71;100.00;102050.03;5221287;28;20040;-84
2021/08/28 10:24:05;;;;;;;10.15;5.07;;;;;;;19.76;100.00;102051.13;5209220;28;20056;-81
2021/08/28 10:26:37;;;;;;;10.40;4.18;;;;;;;19.75;100.00;102041.28;5220052;28;20025;-81
2021/08/28 10:29:08;;;;;;;9.05;4.75;;;;;;;19.81;100.00;102043.19;5220292;28;20437;-81
2021/08/28 10:31:40;;;;;;;12.90;4.07;;;;;;;19.79;100.00;102044.44;5203529;28;20017;-81
2021/08/28 10:34:10;;;;;;;11.88;4.45;;;;;;;19.97;100.00;102041.22;5221429;28;20032;-81
2021/08/28 10:36:41;;;;;;;10.85;4.63;;;;;;;20.06;100.00;102034.56;5228165;28;20383;-82
2021/08/28 10:39:11;;;;;;;10.18;4.30;;;;;;;20.48;100.00;102043.59;5206695;28;20060;-83
2021/08/28 10:41:42;;;;;;;7.93;3.85;;;;;;;21.06;100.00;102044.03;5217129;28;20021;-82
2021/08/28 10:44:13;;;;;;;7.57;3.65;;;;;;;21.18;100.00;102034.16;5227654;28;20025;-84
2021/08/28 10:46:44;;;;;;;10.25;4.60;;;;;;;21.14;100.00;102028.31;5208476;28;20403;-82
2021/08/28 10:49:14;;;;;;;11.32;4.13;;;;;;;20.66;100.00;102036.56;5225819;28;20036;-83
2021/08/28 10:51:44;;;;;;;10.75;4.68;;;;;;;20.17;100.00;102042.16;5226193;28;20145;-83
2021/08/28 10:54:15;;;;;;;12.63;4.72;;;;;;;20.03;100.00;102045.84;5225350;28;20036;-83
2021/08/28 10:56:46;;;;;;;9.95;4.90;;;;;;;19.58;100.00;102042.59;5226809;28;20471;-83
2021/08/28 10:59:22;;;;;;;15.05;5.10;;;;;;;19.28;100.00;102040.00;5226276;28;20089;-83
2021/08/28 11:02:08;;;;;;;9.88;6.03;;;;;;;18.89;100.00;102037.72;5220387;28;20052;-83
2021/08/28 11:04:41;;;;;;;13.45;5.25;;;;;;;18.59;100.00;102040.47;5214013;28;20479;-84
2021/08/28 11:07:17;;;;;;;15.50;5.30;;;;;;;18.93;100.00;102025.44;5213528;28;20018;-83
2021/08/28 11:10:06;;;;;;;12.93;5.07;;;;;;;19.50;100.00;102029.09;5216659;28;20017;-82
2021/08/28 11:13:00;;;;;;;8.50;4.40;;;;;;;19.76;100.00;102025.78;5220931;28;20115;-83
2021/08/28 11:15:31;;;;;;;12.30;4.90;;;;;;;20.07;100.00;102022.63;5208673;28;20095;-83
2021/08/28 11:18:05;;;;;;;12.15;4.50;;;;;;;19.87;100.00;102020.59;5218384;28;20052;-84
2021/08/28 11:20:42;;;;;;;7.93;3.77;;;;;;;19.62;100.00;102027.53;5210270;28;20058;-82
2021/08/28 11:23:20;;;;;;;9.48;4.13;;;;;;;19.56;100.00;102025.59;5220636;28;20028;-82
2021/08/28 11:25:58;;;;;;;9.52;4.38;;;;;;;19.71;100.00;102025.53;5221740;28;20025;-83
2021/08/28 11:28:37;;;;;;;9.00;4.70;;;;;;;20.09;100.00;102035.00;5221765;28;20017;-83
2021/08/28 11:31:09;;;;;;;5.97;4.05;;;;;;;20.24;100.00;102020.44;5225187;28;20040;-81